Nearby METAR Reports

 

CYFC - Fredericton Airp, New Brunswick
Distance from station: E 14km
Updated: Wed, 27-May-2020 7:00pm ADT
Clear
Clear
 Wind from SSE
Wind: SSE 19 km/h, Gust: 31 km/h
Temperature: 29°C
Heat Index: 29°C
Dew Point: 17°C
Humidity: 48%
Barometer: 1017.6 hPa
Clouds: Clear
Visibility: 14 km
2020/05/27 22:00 CYFC 272200Z AUTO 16010G17KT 9SM CLR 29/17 A3005 RMK SLP178 DENSITY ALT 1500FT
CYCX - Gagetown (can M, New Brunswick
Distance from station: E 22km
Updated: Wed, 27-May-2020 7:00pm ADT
Clear
Clear
 Wind from S
Wind: S 13 km/h
Temperature: 28°C
Heat Index: 28°C
Dew Point: 17°C
Humidity: 51%
Barometer: 1018.3 hPa
Clouds: Clear
Visibility: 14 km
2020/05/27 22:00 CYCX 272200Z AUTO 18007KT 140V200 9SM CLR 28/17 A3007 RMK SLP183
 
CYQM - Moncton Airport, New Brunswick
Distance from station: ENE 159km
Updated: Wed, 27-May-2020 7:00pm ADT
Partly cloudy
Partly cloudy
 Wind from ESE
Wind: ESE 13 km/h
Temperature: 24°C
Dew Point: 16°C
Humidity: 61%
Barometer: 1019.3 hPa
Clouds: Partly cloudy
Visibility: 24 km
Cloud details: Few Clouds 3048 m
Few Clouds 4572 m
Partly cloudy 7925 m
2020/05/27 22:00 CYQM 272200Z 12007KT 15SM FEW100 FEW150 SCT260 24/16 A3010 RMK AC1AC1CI2 SLP195 DENSITY ALT 1100FT
CYSJ - Saint John, New Brunswick
Distance from station: SE 88km
Updated: Wed, 27-May-2020 7:00pm ADT
Few Clouds
Few Clouds
 Wind from S
Wind: S 17 km/h
Temperature: 14°C
Dew Point: 11°C
Humidity: 82%
Barometer: 1021.3 hPa
Clouds: Few Clouds
Visibility: 24 km
Cloud details: Few Clouds 244 m
Few Clouds 7620 m
2020/05/27 22:00 CYSJ 272200Z 18009KT 15SM FEW008 FEW250 14/11 A3016 RMK SF1CI1 CI TR SLP217
 
CWPE - Point Lepreau, New Brunswick
Distance from station: SSE 90km
Updated: Wed, 27-May-2020 7:00pm ADT

 Wind from S
Wind: S 11 km/h
Temperature: 10°C
Wind Chill: 8°C
Dew Point: 10°C
Humidity: 100%
2020/05/27 22:00 CWPE 272200Z AUTO 19006KT 10/10 RMK AO1 SLP216 T01030098 56006
CWSS - St. Stephen (mar, New Brunswick
Distance from station: SSW 85km
Updated: Thu, 19-Dec-2019 7:00pm AST
NOT Current

 Wind from W
Wind: W 15 km/h
Temperature: -13°C
Wind Chill: -20°C
Dew Point: -20°C
Humidity: 56%
2019/12/19 23:00 CWSS 192300Z AUTO 27008KT M13/M20 RMK AO1 PK WND 26017/2228 SLP131 T11341199 51023
 
CYHZ - Halifax Intl Arp, Nova Scotia
Distance from station: ESE 273km
Updated: Wed, 27-May-2020 7:00pm ADT
Few Clouds
Few Clouds
 Wind from SSW
Wind: SSW 17 km/h
Temperature: 26°C
Dew Point: 16°C
Humidity: 54%
Barometer: 1021 hPa
Clouds: Few Clouds
Visibility: 24 km
Cloud details: Few Clouds 1554 m
Few Clouds 2865 m
2020/05/27 22:00 CYHZ 272200Z 21009KT 15SM FEW051 FEW094 26/16 A3015 RMK CU1AC1 SLP212 DENSITY ALT 1600FT
CYZX - Greenwood (can M, Nova Scotia
Distance from station: SE 169km
Updated: Wed, 27-May-2020 7:00pm ADT
Few Clouds
Few Clouds
 Wind from W
Wind: W 28 km/h
Temperature: 26°C
Dew Point: 16°C
Humidity: 54%
Barometer: 1021 hPa
Clouds: Few Clouds
Visibility: 24 km
Cloud details: Few Clouds 1219 m
2020/05/27 22:00 CYZX 272200Z 26015KT 15SM FEW040 26/16 A3015 RMK SC1 SLP208
 
CYQI - Yarmouth Airport, Nova Scotia
Distance from station: SSE 230km
Updated: Wed, 27-May-2020 7:17pm ADT
Mist, Overcast
Mist, Overcast
 Wind from S
Wind: S 13 km/h
Temperature: 11°C
Dew Point: 11°C
Humidity: 100%
Barometer: 1023.7 hPa
Summary: Mist
Clouds: Overcast
Visibility: 5 km
Cloud details: Overcast 61 m
2020/05/27 22:17 CYQI 272217Z 17007KT 3SM BR OVC002 11/11 A3023 RMK FG4ST4 SLP238
KHUL - Houlton, Maine, USA
Distance from station: WNW 90km
Updated: Wed, 27-May-2020 7:13pm ADT
Nearby thunderstorm, Mostly Cloudy
Nearby thunderstorm, Mostly Cloudy
 Wind from NNW
Wind: NNW 30 km/h, Gust: 46 km/h
Temperature: 26°C
Dew Point: 17°C
Humidity: 58%
Barometer: 1019.6 hPa
Summary: Nearby Thunderstorm
Clouds: Mostly cloudy
Visibility: 16 km
Cloud details: Partly cloudy 1524 m
Mostly cloudy 1981 m
Mostly cloudy 3658 m
2020/05/27 22:13 KHUL 272213Z AUTO 33016G25KT 10SM VCTS SCT050 BKN065 BKN120 26/17 A3011 RMK AO2 LTG DSNT W-NE PRESRR T02560167
 
KPQI - Presque Isle, Maine, USA
Distance from station: NW 137km
Updated: Wed, 27-May-2020 6:56pm ADT
Nearby thunderstorm, Light rain, Overcast
Nearby thunderstorm, Light rain, Overcast
 Wind from SW
Wind: SW 19 km/h
Temperature: 21°C
Dew Point: 19°C
Humidity: 88%
Barometer: 1020 hPa
Summary: Nearby thunderstorm, Light rain
Clouds: Overcast
Visibility: 16 km
Cloud details: Few Clouds 823 m
Mostly cloudy 2743 m
Overcast 3353 m
2020/05/27 21:56 KPQI 272156Z AUTO 22010KT 10SM VCTS -RA FEW027 BKN090 OVC110 21/19 A3012 RMK AO2 LTG DSNT E-SW SLP222 P0011 T02060194
KCAR - Caribou, Maine, USA
Distance from station: NW 151km
Updated: Wed, 27-May-2020 6:54pm ADT
Overcast
Overcast
 Wind from S
Wind: S 11 km/h
Temperature: 22°C
Dew Point: 20°C
Humidity: 88%
Barometer: 1018.6 hPa
Clouds: Overcast
Visibility: 16 km
Cloud details: Overcast 2896 m
2020/05/27 21:54 KCAR 272154Z AUTO 19006KT 10SM OVC095 22/20 A3008 RMK AO2 LTG DSNT ALQDS RAE33 TSE2059 SLP186 P0000 T02220200
 
KMLT - Millinocket, Maine, USA
Distance from station: W 157km
Updated: Wed, 27-May-2020 6:53pm ADT
Mostly cloudy
Mostly cloudy
 Wind from calm
Wind: Calm
Temperature: 30°C
Heat Index: 31°C
Dew Point: 18°C
Humidity: 49%
Barometer: 1017.6 hPa
Clouds: Mostly cloudy
Visibility: 16 km
Cloud details: Mostly cloudy 3353 m
2020/05/27 21:53 KMLT 272153Z AUTO 00000KT 10SM BKN110 30/18 A3005 RMK AO2 LTG DSNT NW SLP180 T03000183
KBGR - Bangor, Maine, USA
Distance from station: SW 203km
Updated: Wed, 27-May-2020 6:53pm ADT
Few Clouds
Few Clouds
 Wind from S
Wind: S 20 km/h
Temperature: 26°C
Dew Point: 15°C
Humidity: 51%
Barometer: 1019.3 hPa
Clouds: Few Clouds
Visibility: 16 km
Cloud details: Few Clouds 7620 m
2020/05/27 21:53 KBGR 272153Z 18011KT 10SM FEW250 26/15 A3010 RMK AO2 SLP190 T02560150
 
KBHB - Bar Harbor, Maine, USA
Distance from station: SW 204km
Updated: Wed, 27-May-2020 6:56pm ADT
Clear
Clear
 Wind from SSW
Wind: SSW 22 km/h
Temperature: 18°C
Dew Point: 14°C
Humidity: 78%
Barometer: 1021 hPa
Clouds: Clear
Visibility: 16 km
2020/05/27 21:56 KBHB 272156Z AUTO 20012KT 10SM CLR 18/14 A3015 RMK AO2 SLP211 T01780139
CWVU - Brier Island(Aut, Nova Scotia
Distance from station: S 177km
Updated: Wed, 27-May-2020 7:00pm ADT

 Wind from SSE
Wind: SSE 22 km/h
Temperature: 9°C
Wind Chill: 6°C
Dew Point: 9°C
Humidity: 100%
2020/05/27 22:00 CWVU 272200Z AUTO 16012KT 09/09 RMK AO1 PK WND 16020/2125 SLP228 T00850085 55008
 
CXNP - Nappan (auto), Nova Scotia
Distance from station: E 191km
Updated: Wed, 27-May-2020 7:00pm ADT

 Wind from WSW
Wind: WSW 9 km/h
Temperature: 22°C
Dew Point: 16°C
Humidity: 69%
2020/05/27 22:00 CXNP 272200Z AUTO 25005KT 22/16 RMK AO1 SLP209 T02180155 56008
CXKT - Kentville (autob, Nova Scotia
Distance from station: ESE 193km
Updated: Wed, 27-May-2020 7:00pm ADT

 Wind from WNW
Wind: WNW 6 km/h
Temperature: 27°C
Heat Index: 28°C
Dew Point: 16°C
Humidity: 51%
2020/05/27 22:00 CXKT 272200Z AUTO 30003KT 27/16 RMK AO1 SLP205 T02660164 56007
 
CWKG - Kejimkujik (au8), Nova Scotia
Distance from station: SE 197km
Updated: Wed, 27-May-2020 7:00pm ADT

 Wind from WNW
Wind: WNW 9 km/h
Temperature: 25°C
Dew Point: 16°C
Humidity: 57%
2020/05/27 22:00 CWKG 272200Z AUTO 30005KT 25/16 RMK AO1 SLP218 T02520162 56002
KFVE - Frenchville, Maine, USA
Distance from station: NW 201km
Updated: Wed, 27-May-2020 7:01pm ADT
Nearby thunderstorm, Light rain, Overcast
Nearby thunderstorm, Light rain, Overcast
 Wind from S
Wind: S 13 km/h
Temperature: 22°C
Dew Point: 19°C
Humidity: 83%
Barometer: 1017.9 hPa
Summary: Nearby thunderstorm, Light rain
Clouds: Overcast
Visibility: 14 km
Cloud details: Partly cloudy 945 m
Mostly cloudy 1676 m
Overcast 2743 m
2020/05/27 22:01 KFVE 272201Z AUTO 19007KT 9SM VCTS -RA SCT031 BKN055 OVC090 22/19 A3006 RMK AO2 RAB2156 TSE2155 P0001 T02170194
 
CZBF - Bathurst Arpt(Aw, New Brunswick
Distance from station: NNE 208km
Updated: Wed, 27-May-2020 7:00pm ADT
Clear
Clear
 Wind from NNE
Wind: NNE 11 km/h
Temperature: 14°C
Dew Point: 9°C
Humidity: 72%
Barometer: 1020.3 hPa
Clouds: Clear
Visibility: 14 km
2020/05/27 22:00 CZBF 272200Z AUTO 02006KT 9SM CLR 14/09 A3013 RMK SLP206
CERM - Edmunston, New Brunswick
Distance from station: NW 213km
Updated: Wed, 27-May-2020 7:00pm ADT

 Wind from SW
Wind: SW 7 km/h
Temperature: 24°C
Dew Point: 21°C
Humidity: 83%
2020/05/27 22:00 CERM 272200Z AUTO 22004KT 24/21 RMK AO1 7PAST HR 3008 SLP180 P0003 T02370209 50011
 
KGNR - Greenville, Maine, USA
Distance from station: W 226km
Updated: Wed, 27-May-2020 6:56pm ADT

 Wind from S
Wind: S 13 km/h, Gust: 31 km/h
Temperature: 30°C
Heat Index: 31°C
Dew Point: 17°C
Humidity: 46%
Barometer: 1018.3 hPa
2020/05/27 21:56 KGNR 272156Z AUTO 18007G17KT 130V230 30/17 A3007 RMK AO1 SLP175 T03000172
CWSD - Summerside (auto, PEI
Distance from station: ENE 228km
Updated: Wed, 27-May-2020 7:00pm ADT

 Wind from NE
Wind: NE 7 km/h
Temperature: 20°C
Dew Point: 17°C
Humidity: 83%
2020/05/27 22:00 CWSD 272200Z AUTO 04004KT 20/17 RMK AO1 SLP203 T02030166 56012
 
K40B - Clayton Lake, Maine, USA
Distance from station: WNW 233km
Updated: Wed, 27-May-2020 7:16pm ADT

 Wind from varies
Wind: varies 6 km/h
Temperature: 23°C
Dew Point: 22°C
Humidity: 94%
Barometer: 1018.3 hPa
2020/05/27 22:16 K40B 272216Z AUTO VRB03KT 23/22 A3007 RMK AO1 SLP170 T02310217 50005 P0001
CZCR - Charlo Airport, New Brunswick
Distance from station: N 236km
Updated: Wed, 27-May-2020 7:00pm ADT

 Wind from E
Wind: E 17 km/h
Temperature: 12°C
Dew Point: 8°C
Humidity: 77%
2020/05/27 22:00 CZCR 272200Z AUTO 08009KT 12/08 RMK AO1 SLP197 T01210075 56012
 
CWNE - North Point (aut, Ontario
Distance from station: NE 246km
Updated: Wed, 27-May-2020 7:00pm ADT

 Wind from ESE
Wind: ESE 17 km/h
Temperature: 9°C
Wind Chill: 7°C
Dew Point: 8°C
Humidity: 94%
2020/05/27 22:00 CWNE 272200Z AUTO 11009KT 09/08 RMK AO1 SLP203 T00900075 56011
CXLB - Lunenburg, Nova Scotia
Distance from station: SE 250km
Updated: Wed, 27-May-2020 7:00pm ADT

 Wind from SW
Wind: SW 2 km/h
Temperature: 19°C
Dew Point: 12°C
Humidity: 64%
2020/05/27 22:00 CXLB 272200Z AUTO 22001KT 19/12 RMK AO1 SLP203 T01880115 55004
 
CZDB - Debert, Nova Scotia
Distance from station: E 255km
Updated: Wed, 27-May-2020 7:00pm ADT

 Wind from WSW
Wind: WSW 11 km/h
Temperature: 17°C
Dew Point: 14°C
Humidity: 83%
2020/05/27 22:00 CZDB 272200Z AUTO 25006KT 17/14 RMK AO1 SLP214 T01650135 55002
CWOC - New Carlisle1, Quebec
Distance from station: NNE 262km
Updated: Wed, 27-May-2020 7:00pm ADT

 Wind from E
Wind: E 9 km/h
Temperature: 11°C
Dew Point: 6°C
Humidity: 72%
2020/05/27 22:00 CWOC 272200Z AUTO 10005KT 11/06 RMK AO1 SLP201 T01120055 56017
 
CWWE - Western Head (ma, Nova Scotia
Distance from station: SE 264km
Updated: Wed, 27-May-2020 7:00pm ADT

 Wind from SW
Wind: SW 13 km/h
Temperature: 11°C
Dew Point: 8°C
Humidity: 82%
2020/05/27 22:00 CWWE 272200Z AUTO 22007KT 11/08 RMK AO1 SLP221 T01080080 56003
KRKD - Rockland/Knox, Maine, USA
Distance from station: SW 274km
Updated: Wed, 27-May-2020 6:56pm ADT
Clear
Clear
 Wind from SSW
Wind: SSW 15 km/h
Temperature: 19°C
Dew Point: 14°C
Humidity: 73%
Barometer: 1021 hPa
Clouds: Clear
Visibility: 16 km
2020/05/27 21:56 KRKD 272156Z AUTO 20008KT 10SM CLR 19/14 A3015 RMK AO2 SLP209 T01940144
 
CAHR - Harrington Cda, Ontario
Distance from station: ENE 277km
Updated: Wed, 27-May-2020 7:00pm ADT

 Wind from E
Wind: E 4 km/h
Temperature: 21°C
Dew Point: 18°C
Humidity: 83%
2020/05/27 22:00 CAHR 272200Z AUTO 10002KT 21/18 RMK AO1 SLP207 T02120176 56010
KWVL - Waterville, Maine, USA
Distance from station: WSW 277km
Updated: Wed, 27-May-2020 6:56pm ADT
Clear
Clear
 Wind from SSW
Wind: SSW 15 km/h, Gust: 28 km/h
Temperature: 27°C
Heat Index: 28°C
Dew Point: 17°C
Humidity: 54%
Barometer: 1018.6 hPa
Clouds: Clear
Visibility: 16 km
2020/05/27 21:56 KWVL 272156Z AUTO 21008G15KT 10SM CLR 27/17 A3008 RMK AO2 SLP211 T02720167
 
CYYG - Charlottetown Ar, PEI
Distance from station: E 280km
Updated: Wed, 27-May-2020 7:00pm ADT
Few Clouds
Few Clouds
 Wind from E
Wind: E 9 km/h
Temperature: 21°C
Dew Point: 18°C
Humidity: 83%
Barometer: 1020.7 hPa
Clouds: Few Clouds
Visibility: 24 km
Cloud details: Few Clouds 762 m
Few Clouds 7925 m
2020/05/27 22:00 CYYG 272200Z 09005KT 15SM FEW025 FEW260 21/18 A3014 RMK CU1CI1 CI TR SLP207 DENSITY ALT 700FT
CXMI - Mcnabs Island, Nova Scotia
Distance from station: ESE 284km
Updated: Wed, 27-May-2020 7:00pm ADT

 Wind from SSE
Wind: SSE 7 km/h
Temperature: 18°C
2020/05/27 22:00 CXMI 272200Z AUTO 15004KT 18/ RMK AO1 T0176
 
KAUG - Augusta, Maine, USA
Distance from station: SW 298km
Updated: Wed, 27-May-2020 6:53pm ADT
Clear
Clear
 Wind from SSE
Wind: SSE 19 km/h, Gust: 33 km/h
Temperature: 25°C
Dew Point: 16°C
Humidity: 57%
Barometer: 1019.6 hPa
Clouds: Clear
Visibility: 16 km
2020/05/27 21:53 KAUG 272153Z AUTO 16010G18KT 10SM CLR 25/16 A3011 RMK AO2 SLP195 T02500156
CWST - La Pocatiere, Quebec
Distance from station: NW 303km
Updated: Wed, 27-May-2020 7:00pm ADT

 Wind from ESE
Wind: ESE 2 km/h
Temperature: 20°C
Dew Point: 14°C
Humidity: 69%
2020/05/27 22:00 CWST 272200Z AUTO 11001KT 20/14 RMK AO1 SLP162 T01950135 57005
 
CWNH - Riviere Du Loup, Quebec
Distance from station: NW 304km
Updated: Wed, 27-May-2020 7:00pm ADT

 Wind from S
Wind: S 4 km/h
Temperature: 16°C
Dew Point: 14°C
Humidity: 88%
2020/05/27 22:00 CWNH 272200Z AUTO 17002KT 16/14 RMK AO1 SLP167 T01610137 58010
CWBK - Caribou Point(Ma, Nova Scotia
Distance from station: E 312km
Updated: Wed, 27-May-2020 7:00pm ADT

 Wind from ESE
Wind: ESE 6 km/h
Temperature: 16°C
Dew Point: 12°C
Humidity: 77%
2020/05/27 22:00 CWBK 272200Z AUTO 12003KT 16/12 RMK AO1 6008 SLP206 T01570123 50002
 
CWHV - Beauceville, Quebec
Distance from station: W 317km
Updated: Wed, 27-May-2020 7:00pm ADT

 Wind from N
Wind: N 4 km/h
Temperature: 29°C
Heat Index: 31°C
Dew Point: 20°C
Humidity: 58%
2020/05/27 22:00 CWHV 272200Z AUTO 01002KT 29/20 RMK AO1 SLP164 T02890204 58008
KIWI - Wiscasset, Maine, USA
Distance from station: SW 318km
Updated: Wed, 27-May-2020 6:53pm ADT
Clear
Clear
 Wind from varies
Wind: varies 9 km/h
Temperature: 22°C
Dew Point: 14°C
Humidity: 61%
Barometer: 1020.7 hPa
Clouds: Clear
Visibility: 16 km
2020/05/27 21:53 KIWI 272153Z AUTO VRB05KT 10SM CLR 22/14 A3014 RMK AO2 SLP207 T02220144